sensor_id;sensor_type;location;lat;lon;timestamp;P1;durP1;ratioP1;P2;durP2;ratioP2
68870;SDS011;55906;52.278;6.808;2023-06-22T00:00:45;6.60;;;4.93;;
68870;SDS011;55906;52.278;6.808;2023-06-22T00:03:12;6.65;;;5.70;;
68870;SDS011;55906;52.278;6.808;2023-06-22T00:05:38;6.17;;;4.70;;
68870;SDS011;55906;52.278;6.808;2023-06-22T00:08:05;7.10;;;5.55;;
68870;SDS011;55906;52.278;6.808;2023-06-22T00:10:33;7.50;;;5.03;;
68870;SDS011;55906;52.278;6.808;2023-06-22T00:13:00;6.65;;;5.15;;
68870;SDS011;55906;52.278;6.808;2023-06-22T00:15:27;6.72;;;4.93;;
68870;SDS011;55906;52.278;6.808;2023-06-22T00:17:53;6.90;;;5.63;;
68870;SDS011;55906;52.278;6.808;2023-06-22T00:20:22;6.63;;;4.88;;
68870;SDS011;55906;52.278;6.808;2023-06-22T00:22:52;6.40;;;4.95;;
68870;SDS011;55906;52.278;6.808;2023-06-22T00:25:19;6.20;;;4.75;;
68870;SDS011;55906;52.278;6.808;2023-06-22T00:27:47;6.38;;;5.32;;
68870;SDS011;55906;52.278;6.808;2023-06-22T00:30:14;6.73;;;5.00;;
68870;SDS011;55906;52.278;6.808;2023-06-22T00:32:42;6.95;;;5.30;;
68870;SDS011;55906;52.278;6.808;2023-06-22T00:35:09;7.38;;;5.80;;
68870;SDS011;55906;52.278;6.808;2023-06-22T00:37:36;6.00;;;4.70;;
68870;SDS011;55906;52.278;6.808;2023-06-22T00:40:03;7.25;;;5.97;;
68870;SDS011;55906;52.278;6.808;2023-06-22T00:42:32;8.17;;;6.17;;
68870;SDS011;55906;52.278;6.808;2023-06-22T00:45:00;6.47;;;5.18;;
68870;SDS011;55906;52.278;6.808;2023-06-22T00:47:27;10.65;;;8.27;;
68870;SDS011;55906;52.278;6.808;2023-06-22T00:49:54;8.75;;;6.22;;
68870;SDS011;55906;52.278;6.808;2023-06-22T00:52:21;7.57;;;5.60;;
68870;SDS011;55906;52.278;6.808;2023-06-22T00:54:54;8.07;;;5.43;;
68870;SDS011;55906;52.278;6.808;2023-06-22T00:57:22;8.35;;;6.95;;
68870;SDS011;55906;52.278;6.808;2023-06-22T00:59:50;7.53;;;6.03;;
68870;SDS011;55906;52.278;6.808;2023-06-22T01:02:18;7.22;;;6.15;;
68870;SDS011;55906;52.278;6.808;2023-06-22T01:04:45;8.52;;;6.45;;
68870;SDS011;55906;52.278;6.808;2023-06-22T01:07:13;7.87;;;6.67;;
68870;SDS011;55906;52.278;6.808;2023-06-22T01:10:06;8.25;;;6.78;;
68870;SDS011;55906;52.278;6.808;2023-06-22T01:12:42;8.02;;;6.78;;
68870;SDS011;55906;52.278;6.808;2023-06-22T01:15:15;13.60;;;7.47;;
68870;SDS011;55906;52.278;6.808;2023-06-22T01:17:49;8.23;;;6.60;;
68870;SDS011;55906;52.278;6.808;2023-06-22T01:20:18;8.23;;;6.50;;
68870;SDS011;55906;52.278;6.808;2023-06-22T01:22:51;8.25;;;6.60;;
68870;SDS011;55906;52.278;6.808;2023-06-22T01:25:31;7.95;;;6.50;;
68870;SDS011;55906;52.278;6.808;2023-06-22T01:28:03;8.65;;;6.97;;
68870;SDS011;55906;52.278;6.808;2023-06-22T01:30:41;8.85;;;6.75;;
68870;SDS011;55906;52.278;6.808;2023-06-22T01:33:09;8.40;;;6.50;;
68870;SDS011;55906;52.278;6.808;2023-06-22T01:35:37;8.80;;;6.70;;
68870;SDS011;55906;52.278;6.808;2023-06-22T01:38:05;7.18;;;5.80;;
68870;SDS011;55906;52.278;6.808;2023-06-22T01:40:33;12.00;;;9.38;;
68870;SDS011;55906;52.278;6.808;2023-06-22T01:43:01;9.60;;;7.97;;
68870;SDS011;55906;52.278;6.808;2023-06-22T01:45:29;9.87;;;8.17;;
68870;SDS011;55906;52.278;6.808;2023-06-22T01:47:57;12.88;;;10.50;;
68870;SDS011;55906;52.278;6.808;2023-06-22T01:50:24;10.55;;;8.55;;
68870;SDS011;55906;52.278;6.808;2023-06-22T01:52:51;10.88;;;8.38;;
68870;SDS011;55906;52.278;6.808;2023-06-22T01:55:18;11.23;;;8.80;;
68870;SDS011;55906;52.278;6.808;2023-06-22T01:57:45;10.63;;;8.47;;
68870;SDS011;55906;52.278;6.808;2023-06-22T02:00:12;10.18;;;8.00;;
68870;SDS011;55906;52.278;6.808;2023-06-22T02:02:46;10.00;;;7.90;;
68870;SDS011;55906;52.278;6.808;2023-06-22T02:05:21;8.82;;;7.10;;
68870;SDS011;55906;52.278;6.808;2023-06-22T02:07:54;9.65;;;7.60;;
68870;SDS011;55906;52.278;6.808;2023-06-22T02:10:26;10.33;;;8.63;;
68870;SDS011;55906;52.278;6.808;2023-06-22T02:12:54;9.52;;;7.78;;
68870;SDS011;55906;52.278;6.808;2023-06-22T02:15:21;9.30;;;7.22;;
68870;SDS011;55906;52.278;6.808;2023-06-22T02:17:48;9.27;;;7.20;;
68870;SDS011;55906;52.278;6.808;2023-06-22T02:20:15;9.45;;;7.75;;
68870;SDS011;55906;52.278;6.808;2023-06-22T02:22:43;11.50;;;9.50;;
68870;SDS011;55906;52.278;6.808;2023-06-22T02:25:10;13.95;;;8.25;;
68870;SDS011;55906;52.278;6.808;2023-06-22T02:27:37;10.52;;;9.15;;
68870;SDS011;55906;52.278;6.808;2023-06-22T02:30:06;12.73;;;10.07;;
68870;SDS011;55906;52.278;6.808;2023-06-22T02:32:34;12.02;;;9.95;;
68870;SDS011;55906;52.278;6.808;2023-06-22T02:35:00;10.00;;;7.90;;
68870;SDS011;55906;52.278;6.808;2023-06-22T02:37:31;10.77;;;8.93;;
68870;SDS011;55906;52.278;6.808;2023-06-22T02:39:59;9.68;;;8.25;;
68870;SDS011;55906;52.278;6.808;2023-06-22T02:42:26;8.82;;;7.28;;
68870;SDS011;55906;52.278;6.808;2023-06-22T02:44:52;11.32;;;8.43;;
68870;SDS011;55906;52.278;6.808;2023-06-22T02:47:19;11.10;;;8.20;;
68870;SDS011;55906;52.278;6.808;2023-06-22T02:49:46;10.70;;;8.77;;
68870;SDS011;55906;52.278;6.808;2023-06-22T02:52:12;12.60;;;9.68;;
68870;SDS011;55906;52.278;6.808;2023-06-22T02:54:39;10.90;;;8.27;;
68870;SDS011;55906;52.278;6.808;2023-06-22T02:57:07;9.88;;;8.25;;
68870;SDS011;55906;52.278;6.808;2023-06-22T02:59:38;10.23;;;8.70;;
68870;SDS011;55906;52.278;6.808;2023-06-22T03:02:06;11.32;;;8.93;;
68870;SDS011;55906;52.278;6.808;2023-06-22T03:04:32;10.73;;;8.90;;
68870;SDS011;55906;52.278;6.808;2023-06-22T03:06:59;13.30;;;11.00;;
68870;SDS011;55906;52.278;6.808;2023-06-22T03:09:26;11.07;;;9.50;;
68870;SDS011;55906;52.278;6.808;2023-06-22T03:11:53;10.57;;;8.33;;
68870;SDS011;55906;52.278;6.808;2023-06-22T03:14:21;10.15;;;8.07;;
68870;SDS011;55906;52.278;6.808;2023-06-22T03:16:48;12.65;;;10.57;;
68870;SDS011;55906;52.278;6.808;2023-06-22T03:19:15;12.05;;;9.38;;
68870;SDS011;55906;52.278;6.808;2023-06-22T03:21:41;11.80;;;9.90;;
68870;SDS011;55906;52.278;6.808;2023-06-22T03:24:08;14.77;;;12.17;;
68870;SDS011;55906;52.278;6.808;2023-06-22T03:26:35;11.30;;;9.25;;
68870;SDS011;55906;52.278;6.808;2023-06-22T03:29:01;14.52;;;12.13;;
68870;SDS011;55906;52.278;6.808;2023-06-22T03:31:29;19.42;;;15.40;;
68870;SDS011;55906;52.278;6.808;2023-06-22T03:33:56;15.80;;;13.07;;
68870;SDS011;55906;52.278;6.808;2023-06-22T03:36:23;14.67;;;11.47;;
68870;SDS011;55906;52.278;6.808;2023-06-22T03:38:50;12.43;;;10.93;;
68870;SDS011;55906;52.278;6.808;2023-06-22T03:41:17;12.88;;;10.10;;
68870;SDS011;55906;52.278;6.808;2023-06-22T03:43:44;16.52;;;13.15;;
68870;SDS011;55906;52.278;6.808;2023-06-22T03:46:11;21.15;;;16.88;;
68870;SDS011;55906;52.278;6.808;2023-06-22T03:48:39;13.60;;;11.00;;
68870;SDS011;55906;52.278;6.808;2023-06-22T03:51:05;15.93;;;12.30;;
68870;SDS011;55906;52.278;6.808;2023-06-22T03:53:32;13.10;;;11.05;;
68870;SDS011;55906;52.278;6.808;2023-06-22T03:55:58;14.23;;;11.02;;
68870;SDS011;55906;52.278;6.808;2023-06-22T03:58:25;13.68;;;10.13;;
68870;SDS011;55906;52.278;6.808;2023-06-22T04:00:58;18.67;;;14.00;;
68870;SDS011;55906;52.278;6.808;2023-06-22T04:03:25;16.70;;;12.52;;
68870;SDS011;55906;52.278;6.808;2023-06-22T04:05:53;15.48;;;12.00;;
68870;SDS011;55906;52.278;6.808;2023-06-22T04:08:20;24.10;;;17.92;;
68870;SDS011;55906;52.278;6.808;2023-06-22T04:10:46;16.65;;;12.82;;
68870;SDS011;55906;52.278;6.808;2023-06-22T04:13:13;21.10;;;16.33;;
68870;SDS011;55906;52.278;6.808;2023-06-22T04:15:40;18.30;;;14.85;;
68870;SDS011;55906;52.278;6.808;2023-06-22T04:18:06;21.60;;;16.55;;
68870;SDS011;55906;52.278;6.808;2023-06-22T04:20:33;18.02;;;12.40;;
68870;SDS011;55906;52.278;6.808;2023-06-22T04:23:01;19.15;;;15.32;;
68870;SDS011;55906;52.278;6.808;2023-06-22T04:25:28;16.77;;;11.43;;
68870;SDS011;55906;52.278;6.808;2023-06-22T04:27:54;23.77;;;18.95;;
68870;SDS011;55906;52.278;6.808;2023-06-22T04:30:21;16.60;;;12.77;;
68870;SDS011;55906;52.278;6.808;2023-06-22T04:32:47;22.17;;;17.30;;
68870;SDS011;55906;52.278;6.808;2023-06-22T04:35:21;24.20;;;18.42;;
68870;SDS011;55906;52.278;6.808;2023-06-22T04:37:48;28.07;;;21.20;;
68870;SDS011;55906;52.278;6.808;2023-06-22T04:40:21;17.33;;;14.32;;
68870;SDS011;55906;52.278;6.808;2023-06-22T04:42:48;18.50;;;14.40;;
68870;SDS011;55906;52.278;6.808;2023-06-22T04:45:18;26.67;;;20.35;;
68870;SDS011;55906;52.278;6.808;2023-06-22T04:47:46;28.50;;;21.75;;
68870;SDS011;55906;52.278;6.808;2023-06-22T04:50:12;25.53;;;18.47;;
68870;SDS011;55906;52.278;6.808;2023-06-22T04:52:39;29.17;;;22.13;;
68870;SDS011;55906;52.278;6.808;2023-06-22T04:55:06;20.25;;;15.98;;
68870;SDS011;55906;52.278;6.808;2023-06-22T04:57:35;17.25;;;13.93;;
68870;SDS011;55906;52.278;6.808;2023-06-22T05:00:05;20.15;;;15.00;;
68870;SDS011;55906;52.278;6.808;2023-06-22T05:02:37;16.87;;;12.97;;
68870;SDS011;55906;52.278;6.808;2023-06-22T05:05:04;24.38;;;18.73;;
68870;SDS011;55906;52.278;6.808;2023-06-22T05:07:32;28.90;;;21.60;;
68870;SDS011;55906;52.278;6.808;2023-06-22T05:09:59;18.98;;;14.75;;
68870;SDS011;55906;52.278;6.808;2023-06-22T05:12:27;23.23;;;17.95;;
68870;SDS011;55906;52.278;6.808;2023-06-22T05:14:55;20.47;;;16.33;;
68870;SDS011;55906;52.278;6.808;2023-06-22T05:17:22;17.33;;;13.45;;
68870;SDS011;55906;52.278;6.808;2023-06-22T05:19:48;19.38;;;15.45;;
68870;SDS011;55906;52.278;6.808;2023-06-22T05:22:15;15.02;;;12.15;;
68870;SDS011;55906;52.278;6.808;2023-06-22T05:24:42;17.50;;;13.88;;
68870;SDS011;55906;52.278;6.808;2023-06-22T05:27:09;19.37;;;14.60;;
68870;SDS011;55906;52.278;6.808;2023-06-22T05:29:36;25.73;;;19.17;;
68870;SDS011;55906;52.278;6.808;2023-06-22T05:32:05;27.95;;;21.15;;
68870;SDS011;55906;52.278;6.808;2023-06-22T05:34:32;16.33;;;13.18;;
68870;SDS011;55906;52.278;6.808;2023-06-22T05:36:59;16.08;;;13.00;;
68870;SDS011;55906;52.278;6.808;2023-06-22T05:39:25;15.13;;;12.27;;
68870;SDS011;55906;52.278;6.808;2023-06-22T05:41:52;22.05;;;16.13;;
68870;SDS011;55906;52.278;6.808;2023-06-22T05:44:19;14.18;;;11.30;;
68870;SDS011;55906;52.278;6.808;2023-06-22T05:46:48;15.55;;;12.77;;
68870;SDS011;55906;52.278;6.808;2023-06-22T05:49:16;21.23;;;15.63;;
68870;SDS011;55906;52.278;6.808;2023-06-22T05:51:43;15.53;;;12.20;;
68870;SDS011;55906;52.278;6.808;2023-06-22T05:54:09;13.55;;;10.45;;
68870;SDS011;55906;52.278;6.808;2023-06-22T05:56:38;12.65;;;10.15;;
68870;SDS011;55906;52.278;6.808;2023-06-22T05:59:05;11.85;;;9.60;;
68870;SDS011;55906;52.278;6.808;2023-06-22T06:01:31;20.42;;;15.90;;
68870;SDS011;55906;52.278;6.808;2023-06-22T06:04:02;13.00;;;9.67;;
68870;SDS011;55906;52.278;6.808;2023-06-22T06:06:31;11.88;;;9.00;;
68870;SDS011;55906;52.278;6.808;2023-06-22T06:08:59;13.40;;;9.93;;
68870;SDS011;55906;52.278;6.808;2023-06-22T06:11:26;13.18;;;9.98;;
68870;SDS011;55906;52.278;6.808;2023-06-22T06:13:53;12.77;;;9.40;;
68870;SDS011;55906;52.278;6.808;2023-06-22T06:16:19;14.13;;;11.60;;
68870;SDS011;55906;52.278;6.808;2023-06-22T06:18:46;9.55;;;7.47;;
68870;SDS011;55906;52.278;6.808;2023-06-22T06:21:13;12.10;;;9.07;;
68870;SDS011;55906;52.278;6.808;2023-06-22T06:23:41;9.38;;;7.57;;
68870;SDS011;55906;52.278;6.808;2023-06-22T06:26:08;10.45;;;8.85;;
68870;SDS011;55906;52.278;6.808;2023-06-22T06:28:35;11.90;;;8.17;;
68870;SDS011;55906;52.278;6.808;2023-06-22T06:31:01;13.32;;;9.57;;
68870;SDS011;55906;52.278;6.808;2023-06-22T06:33:32;10.82;;;8.18;;
68870;SDS011;55906;52.278;6.808;2023-06-22T06:35:58;9.13;;;6.43;;
68870;SDS011;55906;52.278;6.808;2023-06-22T06:38:27;10.25;;;7.90;;
68870;SDS011;55906;52.278;6.808;2023-06-22T06:40:55;10.17;;;6.67;;
68870;SDS011;55906;52.278;6.808;2023-06-22T06:43:22;11.82;;;8.65;;
68870;SDS011;55906;52.278;6.808;2023-06-22T06:45:49;12.68;;;9.77;;
68870;SDS011;55906;52.278;6.808;2023-06-22T06:48:16;9.70;;;7.20;;
68870;SDS011;55906;52.278;6.808;2023-06-22T06:50:43;10.93;;;7.43;;
68870;SDS011;55906;52.278;6.808;2023-06-22T06:53:10;8.20;;;5.80;;
68870;SDS011;55906;52.278;6.808;2023-06-22T06:55:36;7.82;;;5.57;;
68870;SDS011;55906;52.278;6.808;2023-06-22T06:58:04;10.80;;;7.88;;
68870;SDS011;55906;52.278;6.808;2023-06-22T07:00:33;8.70;;;6.20;;
68870;SDS011;55906;52.278;6.808;2023-06-22T07:03:00;9.13;;;6.78;;
68870;SDS011;55906;52.278;6.808;2023-06-22T07:05:27;7.87;;;5.83;;
68870;SDS011;55906;52.278;6.808;2023-06-22T07:07:54;8.20;;;6.47;;
68870;SDS011;55906;52.278;6.808;2023-06-22T07:10:20;10.13;;;6.43;;
68870;SDS011;55906;52.278;6.808;2023-06-22T07:12:47;8.75;;;6.10;;
68870;SDS011;55906;52.278;6.808;2023-06-22T07:15:15;8.07;;;5.88;;
68870;SDS011;55906;52.278;6.808;2023-06-22T07:17:42;8.90;;;5.83;;
68870;SDS011;55906;52.278;6.808;2023-06-22T07:20:09;8.23;;;5.85;;
68870;SDS011;55906;52.278;6.808;2023-06-22T07:22:37;9.65;;;6.45;;
68870;SDS011;55906;52.278;6.808;2023-06-22T07:25:04;10.07;;;6.72;;
68870;SDS011;55906;52.278;6.808;2023-06-22T07:27:34;8.98;;;6.13;;
68870;SDS011;55906;52.278;6.808;2023-06-22T07:30:03;9.67;;;6.20;;
68870;SDS011;55906;52.278;6.808;2023-06-22T07:32:31;9.65;;;6.15;;
68870;SDS011;55906;52.278;6.808;2023-06-22T07:34:58;8.88;;;6.53;;
68870;SDS011;55906;52.278;6.808;2023-06-22T07:37:25;9.55;;;6.97;;
68870;SDS011;55906;52.278;6.808;2023-06-22T07:39:52;7.45;;;5.28;;
68870;SDS011;55906;52.278;6.808;2023-06-22T07:42:23;12.20;;;7.77;;
68870;SDS011;55906;52.278;6.808;2023-06-22T07:44:50;12.50;;;8.80;;
68870;SDS011;55906;52.278;6.808;2023-06-22T07:47:17;8.68;;;6.22;;
68870;SDS011;55906;52.278;6.808;2023-06-22T07:49:46;12.50;;;7.88;;
68870;SDS011;55906;52.278;6.808;2023-06-22T07:52:12;8.95;;;6.03;;
68870;SDS011;55906;52.278;6.808;2023-06-22T07:54:39;8.97;;;6.00;;
68870;SDS011;55906;52.278;6.808;2023-06-22T07:57:06;6.88;;;4.47;;
68870;SDS011;55906;52.278;6.808;2023-06-22T07:59:32;6.10;;;4.47;;
68870;SDS011;55906;52.278;6.808;2023-06-22T08:01:59;11.30;;;6.85;;
68870;SDS011;55906;52.278;6.808;2023-06-22T08:04:28;8.70;;;6.22;;
68870;SDS011;55906;52.278;6.808;2023-06-22T08:07:00;7.20;;;5.10;;
68870;SDS011;55906;52.278;6.808;2023-06-22T08:09:27;7.05;;;5.15;;
68870;SDS011;55906;52.278;6.808;2023-06-22T08:11:54;8.20;;;6.13;;
68870;SDS011;55906;52.278;6.808;2023-06-22T08:14:21;7.57;;;5.22;;
68870;SDS011;55906;52.278;6.808;2023-06-22T08:16:48;8.48;;;5.28;;
68870;SDS011;55906;52.278;6.808;2023-06-22T08:19:15;7.93;;;5.07;;
68870;SDS011;55906;52.278;6.808;2023-06-22T08:21:42;7.07;;;4.90;;
68870;SDS011;55906;52.278;6.808;2023-06-22T08:24:10;7.72;;;5.50;;
68870;SDS011;55906;52.278;6.808;2023-06-22T08:26:36;9.55;;;6.80;;
68870;SDS011;55906;52.278;6.808;2023-06-22T08:29:03;7.72;;;6.15;;
68870;SDS011;55906;52.278;6.808;2023-06-22T08:31:30;6.97;;;4.93;;
68870;SDS011;55906;52.278;6.808;2023-06-22T08:33:58;6.80;;;4.22;;
68870;SDS011;55906;52.278;6.808;2023-06-22T08:36:25;6.88;;;4.95;;
68870;SDS011;55906;52.278;6.808;2023-06-22T08:38:57;7.13;;;4.80;;
68870;SDS011;55906;52.278;6.808;2023-06-22T08:41:29;7.85;;;4.53;;
68870;SDS011;55906;52.278;6.808;2023-06-22T08:43:56;6.40;;;4.67;;
68870;SDS011;55906;52.278;6.808;2023-06-22T08:46:22;6.82;;;5.05;;
68870;SDS011;55906;52.278;6.808;2023-06-22T08:48:55;6.47;;;4.20;;
68870;SDS011;55906;52.278;6.808;2023-06-22T08:51:22;6.03;;;3.88;;
68870;SDS011;55906;52.278;6.808;2023-06-22T08:53:48;6.65;;;4.65;;
68870;SDS011;55906;52.278;6.808;2023-06-22T08:56:15;6.73;;;4.33;;
68870;SDS011;55906;52.278;6.808;2023-06-22T08:58:43;7.95;;;4.57;;
68870;SDS011;55906;52.278;6.808;2023-06-22T09:01:10;6.57;;;4.13;;
68870;SDS011;55906;52.278;6.808;2023-06-22T09:03:36;6.18;;;4.00;;
68870;SDS011;55906;52.278;6.808;2023-06-22T09:06:03;6.18;;;4.05;;
68870;SDS011;55906;52.278;6.808;2023-06-22T09:08:30;7.30;;;4.40;;
68870;SDS011;55906;52.278;6.808;2023-06-22T09:10:56;7.25;;;4.15;;
68870;SDS011;55906;52.278;6.808;2023-06-22T09:13:23;5.00;;;3.33;;
68870;SDS011;55906;52.278;6.808;2023-06-22T09:15:51;5.57;;;3.92;;
68870;SDS011;55906;52.278;6.808;2023-06-22T09:18:18;6.95;;;4.80;;
68870;SDS011;55906;52.278;6.808;2023-06-22T09:20:44;7.40;;;5.77;;
68870;SDS011;55906;52.278;6.808;2023-06-22T09:23:11;7.05;;;4.82;;
68870;SDS011;55906;52.278;6.808;2023-06-22T09:25:38;7.68;;;4.47;;
68870;SDS011;55906;52.278;6.808;2023-06-22T09:28:05;11.45;;;6.20;;
68870;SDS011;55906;52.278;6.808;2023-06-22T09:30:32;6.78;;;5.18;;
68870;SDS011;55906;52.278;6.808;2023-06-22T09:33:00;8.03;;;4.57;;
68870;SDS011;55906;52.278;6.808;2023-06-22T09:35:27;6.28;;;4.10;;
68870;SDS011;55906;52.278;6.808;2023-06-22T09:37:54;6.72;;;4.82;;
68870;SDS011;55906;52.278;6.808;2023-06-22T09:40:20;7.30;;;5.70;;
68870;SDS011;55906;52.278;6.808;2023-06-22T09:42:47;7.53;;;4.63;;
68870;SDS011;55906;52.278;6.808;2023-06-22T09:45:13;6.90;;;4.40;;
68870;SDS011;55906;52.278;6.808;2023-06-22T09:47:40;5.55;;;4.15;;
68870;SDS011;55906;52.278;6.808;2023-06-22T09:50:09;5.35;;;3.85;;
68870;SDS011;55906;52.278;6.808;2023-06-22T09:52:36;7.13;;;3.75;;
68870;SDS011;55906;52.278;6.808;2023-06-22T09:55:03;5.70;;;3.70;;
68870;SDS011;55906;52.278;6.808;2023-06-22T09:57:30;6.77;;;4.30;;
68870;SDS011;55906;52.278;6.808;2023-06-22T09:59:57;8.45;;;5.40;;
68870;SDS011;55906;52.278;6.808;2023-06-22T10:02:23;5.55;;;3.90;;
68870;SDS011;55906;52.278;6.808;2023-06-22T10:04:50;5.15;;;3.70;;
68870;SDS011;55906;52.278;6.808;2023-06-22T10:07:18;7.70;;;5.00;;
68870;SDS011;55906;52.278;6.808;2023-06-22T10:09:45;6.63;;;4.07;;
68870;SDS011;55906;52.278;6.808;2023-06-22T10:12:14;7.18;;;4.88;;
68870;SDS011;55906;52.278;6.808;2023-06-22T10:14:41;7.38;;;4.70;;
68870;SDS011;55906;52.278;6.808;2023-06-22T10:17:08;7.30;;;5.15;;
68870;SDS011;55906;52.278;6.808;2023-06-22T10:19:34;11.60;;;4.70;;
68870;SDS011;55906;52.278;6.808;2023-06-22T10:22:02;6.17;;;4.37;;
68870;SDS011;55906;52.278;6.808;2023-06-22T10:24:31;6.05;;;4.43;;
68870;SDS011;55906;52.278;6.808;2023-06-22T10:26:58;8.93;;;6.22;;
68870;SDS011;55906;52.278;6.808;2023-06-22T10:29:24;6.93;;;5.28;;
68870;SDS011;55906;52.278;6.808;2023-06-22T10:31:51;6.78;;;5.07;;
68870;SDS011;55906;52.278;6.808;2023-06-22T10:34:18;8.53;;;6.07;;
68870;SDS011;55906;52.278;6.808;2023-06-22T10:36:44;5.50;;;4.22;;
68870;SDS011;55906;52.278;6.808;2023-06-22T10:39:13;7.10;;;5.97;;
68870;SDS011;55906;52.278;6.808;2023-06-22T10:41:41;6.38;;;4.60;;
68870;SDS011;55906;52.278;6.808;2023-06-22T10:44:08;11.23;;;5.75;;
68870;SDS011;55906;52.278;6.808;2023-06-22T10:46:35;5.97;;;4.77;;
68870;SDS011;55906;52.278;6.808;2023-06-22T10:49:02;9.63;;;4.72;;
68870;SDS011;55906;52.278;6.808;2023-06-22T10:51:29;8.05;;;5.65;;
68870;SDS011;55906;52.278;6.808;2023-06-22T10:53:56;6.13;;;4.30;;
68870;SDS011;55906;52.278;6.808;2023-06-22T10:56:23;6.85;;;5.35;;
68870;SDS011;55906;52.278;6.808;2023-06-22T10:58:51;6.30;;;4.47;;
68870;SDS011;55906;52.278;6.808;2023-06-22T11:01:17;7.03;;;5.43;;
68870;SDS011;55906;52.278;6.808;2023-06-22T11:03:44;5.78;;;4.10;;
68870;SDS011;55906;52.278;6.808;2023-06-22T11:06:11;7.05;;;5.18;;
68870;SDS011;55906;52.278;6.808;2023-06-22T11:08:37;7.93;;;5.90;;
68870;SDS011;55906;52.278;6.808;2023-06-22T11:11:04;7.60;;;5.35;;
68870;SDS011;55906;52.278;6.808;2023-06-22T11:13:31;7.00;;;5.28;;
68870;SDS011;55906;52.278;6.808;2023-06-22T11:15:59;5.40;;;4.15;;
68870;SDS011;55906;52.278;6.808;2023-06-22T11:18:25;6.40;;;4.88;;
68870;SDS011;55906;52.278;6.808;2023-06-22T11:20:52;7.68;;;5.97;;
68870;SDS011;55906;52.278;6.808;2023-06-22T11:23:19;8.90;;;5.13;;
68870;SDS011;55906;52.278;6.808;2023-06-22T11:25:45;7.20;;;5.20;;
68870;SDS011;55906;52.278;6.808;2023-06-22T11:28:12;7.93;;;6.05;;
68870;SDS011;55906;52.278;6.808;2023-06-22T11:30:39;6.10;;;4.60;;
68870;SDS011;55906;52.278;6.808;2023-06-22T11:33:07;6.55;;;4.65;;
68870;SDS011;55906;52.278;6.808;2023-06-22T11:35:34;7.03;;;5.03;;
68870;SDS011;55906;52.278;6.808;2023-06-22T11:38:00;6.53;;;4.97;;
68870;SDS011;55906;52.278;6.808;2023-06-22T11:40:28;8.60;;;5.82;;
68870;SDS011;55906;52.278;6.808;2023-06-22T11:42:55;10.30;;;6.63;;
68870;SDS011;55906;52.278;6.808;2023-06-22T11:45:22;7.45;;;5.95;;
68870;SDS011;55906;52.278;6.808;2023-06-22T11:47:48;9.10;;;5.60;;
68870;SDS011;55906;52.278;6.808;2023-06-22T11:50:16;8.68;;;6.00;;
68870;SDS011;55906;52.278;6.808;2023-06-22T11:52:43;9.55;;;6.15;;
68870;SDS011;55906;52.278;6.808;2023-06-22T11:55:10;8.52;;;6.38;;
68870;SDS011;55906;52.278;6.808;2023-06-22T11:57:37;7.28;;;5.93;;
68870;SDS011;55906;52.278;6.808;2023-06-22T12:00:05;7.35;;;5.72;;
68870;SDS011;55906;52.278;6.808;2023-06-22T12:02:39;8.23;;;6.28;;
68870;SDS011;55906;52.278;6.808;2023-06-22T12:05:06;8.98;;;7.30;;
68870;SDS011;55906;52.278;6.808;2023-06-22T12:07:35;7.88;;;6.00;;
68870;SDS011;55906;52.278;6.808;2023-06-22T12:10:02;13.02;;;9.43;;
68870;SDS011;55906;52.278;6.808;2023-06-22T12:12:30;7.40;;;6.20;;
68870;SDS011;55906;52.278;6.808;2023-06-22T12:14:58;9.07;;;7.28;;
68870;SDS011;55906;52.278;6.808;2023-06-22T12:17:28;8.00;;;6.45;;
68870;SDS011;55906;52.278;6.808;2023-06-22T12:19:55;7.65;;;5.75;;
68870;SDS011;55906;52.278;6.808;2023-06-22T12:22:22;7.07;;;5.95;;
68870;SDS011;55906;52.278;6.808;2023-06-22T12:24:50;8.27;;;7.03;;
68870;SDS011;55906;52.278;6.808;2023-06-22T12:27:16;8.80;;;7.05;;
68870;SDS011;55906;52.278;6.808;2023-06-22T12:29:44;8.05;;;6.35;;
68870;SDS011;55906;52.278;6.808;2023-06-22T12:32:12;8.98;;;6.45;;
68870;SDS011;55906;52.278;6.808;2023-06-22T12:34:39;11.13;;;8.10;;
68870;SDS011;55906;52.278;6.808;2023-06-22T12:37:06;10.65;;;8.02;;
68870;SDS011;55906;52.278;6.808;2023-06-22T12:39:33;9.63;;;7.03;;
68870;SDS011;55906;52.278;6.808;2023-06-22T12:42:01;7.65;;;6.40;;
68870;SDS011;55906;52.278;6.808;2023-06-22T12:44:27;9.63;;;7.03;;
68870;SDS011;55906;52.278;6.808;2023-06-22T12:46:54;10.48;;;7.65;;
68870;SDS011;55906;52.278;6.808;2023-06-22T12:49:21;11.00;;;8.35;;
68870;SDS011;55906;52.278;6.808;2023-06-22T12:51:47;7.60;;;5.82;;
68870;SDS011;55906;52.278;6.808;2023-06-22T12:54:14;8.48;;;6.32;;
68870;SDS011;55906;52.278;6.808;2023-06-22T12:56:40;7.53;;;6.32;;
68870;SDS011;55906;52.278;6.808;2023-06-22T12:59:10;7.53;;;6.22;;
68870;SDS011;55906;52.278;6.808;2023-06-22T13:01:37;8.27;;;6.03;;
68870;SDS011;55906;52.278;6.808;2023-06-22T13:04:03;8.43;;;7.38;;
68870;SDS011;55906;52.278;6.808;2023-06-22T13:06:30;9.25;;;7.55;;
68870;SDS011;55906;52.278;6.808;2023-06-22T13:08:57;7.93;;;6.90;;
68870;SDS011;55906;52.278;6.808;2023-06-22T13:11:24;7.07;;;5.55;;
68870;SDS011;55906;52.278;6.808;2023-06-22T13:13:50;7.82;;;5.57;;
68870;SDS011;55906;52.278;6.808;2023-06-22T13:16:18;7.60;;;6.05;;
68870;SDS011;55906;52.278;6.808;2023-06-22T13:18:45;8.35;;;6.55;;
68870;SDS011;55906;52.278;6.808;2023-06-22T13:21:12;9.45;;;5.90;;
68870;SDS011;55906;52.278;6.808;2023-06-22T13:23:39;7.45;;;6.05;;
68870;SDS011;55906;52.278;6.808;2023-06-22T13:26:06;10.60;;;8.63;;
68870;SDS011;55906;52.278;6.808;2023-06-22T13:28:33;9.43;;;7.43;;
68870;SDS011;55906;52.278;6.808;2023-06-22T13:31:00;9.25;;;7.15;;
68870;SDS011;55906;52.278;6.808;2023-06-22T13:33:28;9.75;;;7.47;;
68870;SDS011;55906;52.278;6.808;2023-06-22T13:35:55;7.97;;;6.88;;
68870;SDS011;55906;52.278;6.808;2023-06-22T13:38:22;10.52;;;8.10;;
68870;SDS011;55906;52.278;6.808;2023-06-22T13:40:48;9.70;;;7.97;;
68870;SDS011;55906;52.278;6.808;2023-06-22T13:43:15;10.07;;;8.07;;
68870;SDS011;55906;52.278;6.808;2023-06-22T13:45:43;14.40;;;11.05;;
68870;SDS011;55906;52.278;6.808;2023-06-22T13:48:09;13.93;;;10.90;;
68870;SDS011;55906;52.278;6.808;2023-06-22T13:50:37;10.43;;;7.68;;
68870;SDS011;55906;52.278;6.808;2023-06-22T13:53:04;15.85;;;10.88;;
68870;SDS011;55906;52.278;6.808;2023-06-22T13:55:31;10.48;;;7.57;;
68870;SDS011;55906;52.278;6.808;2023-06-22T13:57:57;9.30;;;7.80;;
68870;SDS011;55906;52.278;6.808;2023-06-22T14:00:24;11.73;;;8.27;;
68870;SDS011;55906;52.278;6.808;2023-06-22T14:02:52;9.40;;;7.63;;
68870;SDS011;55906;52.278;6.808;2023-06-22T14:05:19;8.73;;;7.15;;
68870;SDS011;55906;52.278;6.808;2023-06-22T14:07:48;11.80;;;7.57;;
68870;SDS011;55906;52.278;6.808;2023-06-22T14:10:14;10.20;;;8.50;;
68870;SDS011;55906;52.278;6.808;2023-06-22T14:12:41;12.13;;;9.23;;
68870;SDS011;55906;52.278;6.808;2023-06-22T14:15:08;9.20;;;7.63;;
68870;SDS011;55906;52.278;6.808;2023-06-22T14:17:35;11.48;;;7.53;;
68870;SDS011;55906;52.278;6.808;2023-06-22T14:20:02;10.20;;;7.28;;
68870;SDS011;55906;52.278;6.808;2023-06-22T14:22:30;10.20;;;7.82;;
68870;SDS011;55906;52.278;6.808;2023-06-22T14:24:59;9.40;;;7.63;;
68870;SDS011;55906;52.278;6.808;2023-06-22T14:27:26;10.27;;;8.80;;
68870;SDS011;55906;52.278;6.808;2023-06-22T14:29:53;11.35;;;9.25;;
68870;SDS011;55906;52.278;6.808;2023-06-22T14:32:20;13.52;;;10.57;;
68870;SDS011;55906;52.278;6.808;2023-06-22T14:34:46;14.95;;;12.25;;
68870;SDS011;55906;52.278;6.808;2023-06-22T14:37:15;11.27;;;8.85;;
68870;SDS011;55906;52.278;6.808;2023-06-22T14:39:42;13.55;;;11.35;;